Storm Events Database

Event Details

Event Thunderstorm Wind
Magnitude 61 kts.
State ALABAMA
County/Area DALLAS
WFO BMX
Report Source NWS Storm Survey
NCDC Data Source CSV
Begin Date 2009-02-18 17:12:00.0 CST-6
Begin Location 4SSE SELMA SELFIELD ARPT
Begin Lat/Lon 32.37/-86.93
End Date 2009-02-18 17:12:00.0 CST-6
Deaths Direct/Indirect 0/0 (fatality details below, when available...)
Injuries Direct/Indirect 0/0
Property Damage 140.00K
Crop Damage 0.00K
Episode Narrative A powerful low pressure system and associated cold front pushed through the area, and helped trigger numerous thunderstorms. Some became supercells, that produced long swaths of large hail, areas of damaging winds, and at least one tornado.
Event Narrative A church was destroyed when winds estimated around 70 mph lifted off its roof and shifted it about 10 feet. Several trees in the same area were snapped and uprooted.


     ‚Äč



All events for this episode:

Location County/Zone St. Date Time T.Z. Type Mag Dth Inj PrD CrD
Totals: 0 0 215.00K 0.00K
CENTER PT JEFFERSON CO. AL 02/18/2009 14:33 CST-6 Hail 0.88 in. 0 0 0.00K 0.00K
BROOMTOWN CHEROKEE CO. AL 02/18/2009 14:45 CST-6 Hail 0.88 in. 0 0 0.00K 0.00K
WATSON CHEROKEE CO. AL 02/18/2009 14:45 CST-6 Thunderstorm Wind 50 kts. EG 0 0 0.50K 0.00K
COOKS SPGS ST. CLAIR CO. AL 02/18/2009 15:15 CST-6 Hail 0.88 in. 0 0 0.00K 0.00K
LINCOLN TALLADEGA CO. AL 02/18/2009 15:26 CST-6 Hail 0.88 in. 0 0 0.00K 0.00K
ANNISTON CALHOUN CO. AL 02/18/2009 15:45 CST-6 Hail 1.00 in. 0 0 0.00K 0.00K
HOBSON CITY CALHOUN CO. AL 02/18/2009 15:50 CST-6 Hail 1.75 in. 0 0 0.00K 0.00K
HOBSON CITY CALHOUN CO. AL 02/18/2009 15:52 CST-6 Thunderstorm Wind 56 kts. EG 0 0 15.00K 0.00K
BELLTOWN CLEBURNE CO. AL 02/18/2009 15:55 CST-6 Thunderstorm Wind 50 kts. EG 0 0 1.00K 0.00K
BELLTOWN CLEBURNE CO. AL 02/18/2009 15:55 CST-6 Hail 1.75 in. 0 0 0.00K 0.00K
BELMONT SUMTER CO. AL 02/18/2009 16:00 CST-6 Thunderstorm Wind 50 kts. EG 0 0 3.00K 0.00K
FORKLAND GREENE CO. AL 02/18/2009 16:08 CST-6 Thunderstorm Wind 50 kts. EG 0 0 1.00K 0.00K
SPRINGVILLE ST. CLAIR CO. AL 02/18/2009 16:13 CST-6 Hail 0.75 in. 0 0 0.00K 0.00K
TRIKEM CLEBURNE CO. AL 02/18/2009 16:13 CST-6 Hail 4.25 in. 0 0 0.00K 0.00K
GALLION HALE CO. AL 02/18/2009 16:18 CST-6 Hail 1.00 in. 0 0 0.00K 0.00K
SLEDGE HALE CO. AL 02/18/2009 16:26 CST-6 Thunderstorm Wind 50 kts. EG 0 0 3.00K 0.00K
RAGLAND ST. CLAIR CO. AL 02/18/2009 16:29 CST-6 Hail 1.00 in. 0 0 0.00K 0.00K
NEWBERN HALE CO. AL 02/18/2009 16:31 CST-6 Hail 1.75 in. 0 0 0.00K 0.00K
FAUNSDALE MARENGO CO. AL 02/18/2009 16:33 CST-6 Hail 1.75 in. 0 0 0.00K 0.00K
SCOTT STATION PERRY CO. AL 02/18/2009 16:34 CST-6 Hail 1.75 in. 0 0 0.00K 0.00K
VANCE TUSCALOOSA CO. AL 02/18/2009 16:40 CST-6 Hail 0.88 in. 0 0 0.00K 0.00K
VAIDEN PERRY CO. AL 02/18/2009 16:44 CST-6 Thunderstorm Wind 61 kts. EG 0 0 8.00K 0.00K
MARION PERRY CO ARPT PERRY CO. AL 02/18/2009 16:51 CST-6 Hail 1.00 in. 0 0 0.00K 0.00K
SAKS CALHOUN CO. AL 02/18/2009 16:53 CST-6 Hail 1.75 in. 0 0 0.00K 0.00K
POTTER DALLAS CO. AL 02/18/2009 17:06 CST-6 Hail 2.75 in. 0 0 0.00K 0.00K
EDWARDSVILLE CLEBURNE CO. AL 02/18/2009 17:10 CST-6 Hail 0.88 in. 0 0 0.00K 0.00K
SELMA SELFIELD ARPT DALLAS CO. AL 02/18/2009 17:12 CST-6 Thunderstorm Wind 61 kts. EG 0 0 140.00K 0.00K
MANILA DALLAS CO. AL 02/18/2009 17:14 CST-6 Thunderstorm Wind 52 kts. EG 0 0 30.00K 0.00K
LINDEN MARENGO CO. AL 02/18/2009 17:49 CST-6 Hail 0.88 in. 0 0 0.00K 0.00K
NORTHPORT TUSCALOOSA CO. AL 02/18/2009 17:50 CST-6 Hail 1.00 in. 0 0 0.00K 0.00K
TAYLORVILLE TUSCALOOSA CO. AL 02/18/2009 17:53 CST-6 Hail 0.75 in. 0 0 0.00K 0.00K
BARFIELD CLAY CO. AL 02/18/2009 18:20 CST-6 Hail 1.00 in. 0 0 0.00K 0.00K
SPAULDING JEFFERSON CO. AL 02/18/2009 18:20 CST-6 Hail 1.00 in. 0 0 0.00K 0.00K
FOSTERS TUSCALOOSA CO. AL 02/18/2009 18:30 CST-6 Thunderstorm Wind 50 kts. EG 0 0 0.50K 0.00K
HOMEWOOD JEFFERSON CO. AL 02/18/2009 18:31 CST-6 Hail 1.00 in. 0 0 0.00K 0.00K
BRANTLEYVILLE SHELBY CO. AL 02/18/2009 18:39 CST-6 Hail 0.88 in. 0 0 0.00K 0.00K
NORTHPORT TUSCALOOSA CO. AL 02/18/2009 18:45 CST-6 Thunderstorm Wind 50 kts. EG 0 0 2.00K 0.00K
WEHADKEE RANDOLPH CO. AL 02/18/2009 18:55 CST-6 Tornado EF1 0 0 10.00K 0.00K
OMAHA RANDOLPH CO. AL 02/18/2009 18:58 CST-6 Hail 1.00 in. 0 0 0.00K 0.00K
ASHBY BIBB CO. AL 02/18/2009 19:35 CST-6 Thunderstorm Wind 50 kts. EG 0 0 0.00K 0.00K
THORSBY CHILTON CO. AL 02/18/2009 19:43 CST-6 Hail 0.75 in. 0 0 0.00K 0.00K
OMAHA RANDOLPH CO. AL 02/18/2009 20:20 CST-6 Hail 0.88 in. 0 0 0.00K 0.00K
MITYLENE MONTGOMERY CO. AL 02/18/2009 22:50 CST-6 Thunderstorm Wind 50 kts. EG 0 0 1.00K 0.00K
Totals: 0 0 215.00K 0.00K